Genco Auvergne — V7ES3 — position and weather

sailwx.info

Track history (hours):
 
Tides and Currents Weather Stations Pressure Air Temp Water Temp Dewpoint Dewpoint Depression Visibility Wind Speed Wind Dir Waves Ship Positions

Genco Auvergne

Last reported at 2016-Mar-29 01:25 UTC. Time now 2016-May-01 08:00 UTC.
Position N 08°26' W 015°05'.
Warning: this ship's position is 33 days out of date.

Length 190 m; draft 12.1 m.

Type: Cargo ship. MMSI: 538002570.

Date/timePositionNaut miles runAvg speedWind from/ knotsBaromVisibWave heightAir tempDewpointWater temp
2016-Mar-29 01:25N 08°26' W 015°05'1212.2
2016-Mar-29 00:27N 08°33' W 015°14'1212.4
2016-Mar-28 23:28N 08°41' W 015°23'1112.4
2016-Mar-28 22:33N 08°49' W 015°31'1212.3
2016-Mar-28 21:33N 08°57' W 015°41'1212.3
2016-Mar-28 20:33N 09°05' W 015°50'1212.3
2016-Mar-28 19:33N 09°13' W 015°60'3812.1
2016-Mar-28 16:27N 09°38' W 016°28'1212.2
2016-Mar-28 15:29N 09°45' W 016°38'1212.6
2016-Mar-28 14:33N 09°53' W 016°47'1211.9
2016-Mar-28 13:33N 10°01' W 016°56'27811.9
2016-Mar-27 14:13N 14°33' W 017°51'912.0
2016-Mar-27 13:27N 14°42' W 017°52'  
2016-Mar-22 08:31N 35°59' W 005°29'7 7.0
2016-Mar-22 07:33N 36°03' W 005°23'5 0.5
2016-Mar-21 21:26N 36°08' W 005°23'5 5.4
2016-Mar-21 20:33N 36°05' W 005°19'  
Track history (hours):
 
Tides and Currents Weather Stations Pressure Air Temp Water Temp Dewpoint Dewpoint Depression Visibility Wind Speed Wind Dir Waves Ship Positions

Genco Auvergne

Last reported at 2016-Mar-29 01:25 UTC. Time now 2016-May-01 08:00 UTC.
Position N 08°26' W 015°05'.
Warning: this ship's position is 33 days out of date.

Length 190 m; draft 12.1 m.

Type: Cargo ship. MMSI: 538002570.

Date/timePositionNaut miles runAvg speedWind from/ knotsBaromVisibWave heightAir tempDewpointWater temp
2016-Mar-29 01:25N 08°26' W 015°05'1212.2
2016-Mar-29 00:27N 08°33' W 015°14'1212.4
2016-Mar-28 23:28N 08°41' W 015°23'1112.4
2016-Mar-28 22:33N 08°49' W 015°31'1212.3
2016-Mar-28 21:33N 08°57' W 015°41'1212.3
2016-Mar-28 20:33N 09°05' W 015°50'1212.3
2016-Mar-28 19:33N 09°13' W 015°60'3812.1
2016-Mar-28 16:27N 09°38' W 016°28'1212.2
2016-Mar-28 15:29N 09°45' W 016°38'1212.6
2016-Mar-28 14:33N 09°53' W 016°47'1211.9
2016-Mar-28 13:33N 10°01' W 016°56'27811.9
2016-Mar-27 14:13N 14°33' W 017°51'912.0
2016-Mar-27 13:27N 14°42' W 017°52'  
2016-Mar-22 08:31N 35°59' W 005°29'7 7.0
2016-Mar-22 07:33N 36°03' W 005°23'5 0.5
2016-Mar-21 21:26N 36°08' W 005°23'5 5.4
2016-Mar-21 20:33N 36°05' W 005°19'  

Dump ship's entire track history